createdAt,value
2023-02-07T00:01:16.938Z,84.30
2023-02-07T00:03:44.879Z,77.60
2023-02-07T00:06:15.295Z,64.70
2023-02-07T00:08:43.575Z,69.10
2023-02-07T00:11:12.469Z,70.80
2023-02-07T00:13:39.211Z,95.10
2023-02-07T00:16:07.193Z,111.40
2023-02-07T00:18:35.223Z,129.60
2023-02-07T00:21:03.293Z,105.10
2023-02-07T00:23:31.288Z,105.20
2023-02-07T00:25:58.078Z,100.60
2023-02-07T00:28:25.529Z,110.50
2023-02-07T00:31:03.310Z,94.30
2023-02-07T00:33:30.444Z,112.20
2023-02-07T00:35:59.362Z,97.30
2023-02-07T00:38:26.214Z,102.60
2023-02-07T00:40:52.980Z,95.70
2023-02-07T00:43:29.411Z,86.70
2023-02-07T00:46:02.999Z,79.10
2023-02-07T00:48:31.396Z,67.60
2023-02-07T00:50:58.730Z,66.00
2023-02-07T00:53:26.999Z,62.70
2023-02-07T00:55:53.932Z,57.80
2023-02-07T00:58:21.622Z,61.10
2023-02-07T01:00:48.562Z,56.00
2023-02-07T01:03:15.576Z,59.70
2023-02-07T01:05:42.442Z,62.70
2023-02-07T01:08:09.591Z,55.80
2023-02-07T01:10:39.198Z,62.70
2023-02-07T01:13:05.942Z,54.90
2023-02-07T01:15:37.850Z,58.50
2023-02-07T01:18:06.260Z,61.30
2023-02-07T01:20:33.636Z,55.60
2023-02-07T01:23:00.436Z,64.60
2023-02-07T01:25:27.249Z,61.20
2023-02-07T01:27:54.038Z,56.00
2023-02-07T01:30:20.886Z,53.80
2023-02-07T01:32:47.574Z,62.20
2023-02-07T01:35:14.315Z,47.90
2023-02-07T01:37:41.564Z,53.20
2023-02-07T01:40:09.145Z,59.10
2023-02-07T01:42:35.835Z,55.40
2023-02-07T01:45:12.599Z,49.60
2023-02-07T01:47:39.765Z,57.00
2023-02-07T01:50:07.132Z,52.30
2023-02-07T01:52:39.863Z,52.20
2023-02-07T01:55:12.684Z,51.90
2023-02-07T01:57:40.316Z,54.70
2023-02-07T02:00:08.501Z,54.80
2023-02-07T02:02:37.193Z,51.40
2023-02-07T02:05:05.128Z,52.70
2023-02-07T02:07:33.286Z,48.30
2023-02-07T02:10:00.827Z,46.50
2023-02-07T02:12:56.156Z,54.40
2023-02-07T02:15:40.534Z,51.30
2023-02-07T02:18:29.870Z,47.40
2023-02-07T02:21:33.550Z,53.40
2023-02-07T02:24:24.991Z,56.40
2023-02-07T02:27:14.752Z,52.60
2023-02-07T02:32:30.729Z,40.30
2023-02-07T02:35:22.623Z,49.80
2023-02-07T02:38:11.650Z,49.00
2023-02-07T02:40:47.979Z,54.30
2023-02-07T02:43:42.631Z,55.30
2023-02-07T02:46:23.878Z,59.70
2023-02-07T02:48:52.159Z,53.50
2023-02-07T02:51:18.931Z,57.50
2023-02-07T02:53:56.845Z,46.40
2023-02-07T02:56:39.212Z,44.40
2023-02-07T02:59:28.366Z,48.90
2023-02-07T03:02:08.979Z,51.50
2023-02-07T03:04:58.363Z,55.70
2023-02-07T03:07:42.796Z,48.50
2023-02-07T03:10:12.236Z,56.20
2023-02-07T03:13:02.800Z,58.60
2023-02-07T03:15:47.420Z,47.20
2023-02-07T03:18:27.388Z,57.30
2023-02-07T03:21:03.573Z,52.00
2023-02-07T03:23:32.680Z,46.00
2023-02-07T03:26:02.280Z,49.80
2023-02-07T03:28:31.336Z,44.50
2023-02-07T03:31:01.666Z,37.40
2023-02-07T03:33:28.834Z,51.00
2023-02-07T03:36:18.045Z,54.40
2023-02-07T03:38:45.632Z,52.80
2023-02-07T03:41:21.588Z,52.90
2023-02-07T03:43:49.930Z,51.60
2023-02-07T03:46:17.792Z,49.50
2023-02-07T03:48:44.539Z,44.70
2023-02-07T03:51:11.220Z,43.90
2023-02-07T03:53:37.921Z,45.00
2023-02-07T03:56:04.997Z,37.70
2023-02-07T03:58:31.678Z,44.80
2023-02-07T04:00:58.467Z,46.70
2023-02-07T04:03:25.558Z,53.80
2023-02-07T04:05:52.532Z,44.10
2023-02-07T04:08:19.266Z,50.30
2023-02-07T04:10:46.155Z,56.40
2023-02-07T04:13:12.847Z,56.20
2023-02-07T04:15:40.027Z,55.20
2023-02-07T04:18:06.906Z,52.40
2023-02-07T04:20:33.620Z,50.80
2023-02-07T04:23:00.292Z,47.60
2023-02-07T04:25:27.438Z,50.30
2023-02-07T04:27:54.179Z,54.20
2023-02-07T04:30:20.924Z,49.40
2023-02-07T04:32:47.687Z,51.30
2023-02-07T04:35:14.388Z,52.70
2023-02-07T04:37:41.230Z,57.80
2023-02-07T04:40:08.636Z,56.70
2023-02-07T04:42:35.335Z,54.80
2023-02-07T04:45:02.132Z,63.80
2023-02-07T04:47:29.437Z,58.80
2023-02-07T04:49:56.153Z,59.90
2023-02-07T04:52:22.993Z,49.20
2023-02-07T04:54:49.876Z,54.60
2023-02-07T04:57:16.953Z,56.20
2023-02-07T04:59:43.650Z,64.80
2023-02-07T05:02:10.703Z,55.50
2023-02-07T05:04:38.760Z,55.80
2023-02-07T05:07:05.497Z,49.10
2023-02-07T05:09:32.366Z,54.00
2023-02-07T05:11:59.106Z,59.60
2023-02-07T05:14:25.874Z,57.70
2023-02-07T05:16:52.594Z,54.90
2023-02-07T05:19:19.329Z,55.40
2023-02-07T05:21:46.022Z,53.60
2023-02-07T05:24:12.836Z,48.20
2023-02-07T05:26:40.478Z,56.20
2023-02-07T05:29:07.311Z,62.90
2023-02-07T05:31:54.375Z,57.70
2023-02-07T05:34:21.576Z,51.30
2023-02-07T05:36:48.245Z,53.80
2023-02-07T05:39:15.034Z,59.40
2023-02-07T05:41:41.718Z,56.30
2023-02-07T05:44:08.345Z,56.90
2023-02-07T05:46:35.054Z,58.60
2023-02-07T05:49:01.921Z,55.20
2023-02-07T05:51:28.830Z,63.60
2023-02-07T05:53:55.674Z,63.10
2023-02-07T05:56:22.384Z,57.40
2023-02-07T05:58:49.512Z,54.20
2023-02-07T06:01:16.294Z,56.10
2023-02-07T06:03:43.040Z,62.90
2023-02-07T06:06:09.791Z,58.90
2023-02-07T06:08:36.615Z,53.00
2023-02-07T06:11:03.449Z,58.10
2023-02-07T06:13:30.259Z,61.70
2023-02-07T06:15:57.055Z,56.60
2023-02-07T06:18:25.110Z,55.20
2023-02-07T06:20:52.067Z,58.80
2023-02-07T06:23:21.541Z,59.50
2023-02-07T06:25:48.231Z,69.70
2023-02-07T06:28:15.096Z,61.80
2023-02-07T06:30:41.891Z,61.40
2023-02-07T06:33:08.617Z,71.50
2023-02-07T06:35:35.365Z,66.40
2023-02-07T06:38:02.233Z,62.70
2023-02-07T06:40:29.059Z,59.80
2023-02-07T06:42:55.978Z,55.40
2023-02-07T06:45:22.903Z,60.80
2023-02-07T06:47:49.609Z,61.60
2023-02-07T06:50:16.389Z,60.40
2023-02-07T06:52:43.108Z,59.90
2023-02-07T06:55:09.969Z,60.50
2023-02-07T06:57:36.652Z,65.10
2023-02-07T07:00:05.445Z,65.70
2023-02-07T07:02:32.286Z,67.50
2023-02-07T07:04:58.975Z,66.20
2023-02-07T07:07:25.675Z,59.40
2023-02-07T07:09:53.132Z,56.60
2023-02-07T07:12:19.860Z,58.30
2023-02-07T07:14:46.694Z,60.90
2023-02-07T07:17:15.569Z,56.80
2023-02-07T07:19:42.398Z,62.90
2023-02-07T07:22:09.319Z,63.40
2023-02-07T07:24:36.406Z,53.60
2023-02-07T07:27:03.699Z,59.20
2023-02-07T07:29:30.622Z,57.50
2023-02-07T07:31:57.508Z,54.80
2023-02-07T07:34:24.399Z,45.50
2023-02-07T07:36:51.841Z,55.80
2023-02-07T07:42:00.309Z,52.10
2023-02-07T07:44:27.106Z,53.50
2023-02-07T07:46:54.101Z,42.70
2023-02-07T07:49:21.133Z,46.80
2023-02-07T07:51:48.016Z,46.70
2023-02-07T07:54:14.903Z,61.10
2023-02-07T07:56:41.946Z,56.00
2023-02-07T07:59:15.981Z,53.00
2023-02-07T08:01:50.402Z,51.70
2023-02-07T08:04:17.237Z,55.70
2023-02-07T08:06:44.122Z,57.90
2023-02-07T08:09:11.296Z,55.50
2023-02-07T08:11:38.424Z,48.00
2023-02-07T08:14:05.309Z,50.30
2023-02-07T08:16:32.254Z,52.10
2023-02-07T08:18:59.219Z,48.60
2023-02-07T08:21:27.028Z,38.80
2023-02-07T08:23:57.337Z,44.90
2023-02-07T08:26:24.660Z,38.20
2023-02-07T08:28:53.061Z,34.30
2023-02-07T08:31:22.866Z,39.40
2023-02-07T08:36:16.803Z,37.60
2023-02-07T08:38:43.683Z,39.60
2023-02-07T08:41:12.993Z,31.80
2023-02-07T08:43:41.028Z,37.70
2023-02-07T08:46:08.574Z,43.80
2023-02-07T08:48:35.627Z,38.00
2023-02-07T08:51:07.523Z,36.30
2023-02-07T08:53:35.067Z,40.50
2023-02-07T08:56:02.275Z,41.60
2023-02-07T08:58:29.282Z,45.50
2023-02-07T09:00:56.367Z,41.60
2023-02-07T09:03:23.422Z,38.50
2023-02-07T09:05:50.318Z,39.90
2023-02-07T09:08:18.605Z,59.30
2023-02-07T09:10:48.141Z,46.80
2023-02-07T09:13:15.007Z,52.60
2023-02-07T09:15:42.100Z,53.20
2023-02-07T09:18:09.059Z,51.60
2023-02-07T09:20:36.146Z,49.50
2023-02-07T09:23:16.916Z,43.00
2023-02-07T09:25:44.344Z,44.90
2023-02-07T09:28:11.290Z,40.60
2023-02-07T09:30:41.968Z,42.10
2023-02-07T09:33:10.291Z,34.90
2023-02-07T09:35:38.934Z,43.50
2023-02-07T09:38:07.323Z,38.00
2023-02-07T09:40:35.829Z,39.40
2023-02-07T09:43:43.252Z,38.60
2023-02-07T09:46:20.582Z,43.60
2023-02-07T09:49:08.893Z,37.00
2023-02-07T09:51:37.258Z,46.30
2023-02-07T09:54:15.705Z,42.90
2023-02-07T09:56:49.264Z,44.50
2023-02-07T09:59:27.409Z,43.40
2023-02-07T10:02:00.140Z,44.00
2023-02-07T10:04:49.064Z,43.20
2023-02-07T10:07:16.086Z,38.00
2023-02-07T10:09:45.492Z,44.50
2023-02-07T10:12:26.297Z,37.00
2023-02-07T10:15:01.867Z,43.20
2023-02-07T10:17:32.371Z,43.00
2023-02-07T10:20:19.000Z,45.70
2023-02-07T10:22:58.401Z,37.90
2023-02-07T10:25:45.154Z,45.70
2023-02-07T10:28:14.649Z,39.40
2023-02-07T10:30:49.924Z,41.30
2023-02-07T10:33:22.090Z,40.50
2023-02-07T10:35:48.811Z,41.10
2023-02-07T10:38:30.996Z,39.20
2023-02-07T10:41:06.604Z,41.20
2023-02-07T10:43:34.841Z,43.40
2023-02-07T10:46:06.736Z,36.60
2023-02-07T10:48:34.833Z,42.90
2023-02-07T10:51:05.316Z,41.30
2023-02-07T10:53:55.547Z,42.10
2023-02-07T10:56:26.488Z,34.80
2023-02-07T10:58:54.688Z,44.30
2023-02-07T11:01:26.142Z,42.70
2023-02-07T11:03:54.285Z,39.90
2023-02-07T11:06:33.314Z,41.50
2023-02-07T11:09:23.707Z,37.70
2023-02-07T11:11:52.862Z,43.00
2023-02-07T11:14:26.769Z,44.90
2023-02-07T11:16:58.750Z,40.40
2023-02-07T11:19:30.786Z,44.30
2023-02-07T11:22:11.323Z,45.30
2023-02-07T11:24:38.529Z,39.80
2023-02-07T11:27:13.139Z,40.80
2023-02-07T11:30:07.351Z,43.60
2023-02-07T11:32:36.497Z,37.20
2023-02-07T11:35:09.861Z,40.80
2023-02-07T11:37:47.648Z,39.20
2023-02-07T11:40:25.388Z,43.70
2023-02-07T11:43:09.874Z,39.20
2023-02-07T11:45:41.350Z,42.20
2023-02-07T11:48:22.556Z,36.20
2023-02-07T11:50:54.320Z,35.40
2023-02-07T11:53:44.003Z,41.80
2023-02-07T11:56:38.860Z,36.30
2023-02-07T11:59:11.360Z,34.10
2023-02-07T12:01:40.015Z,36.70
2023-02-07T12:04:16.147Z,44.90
2023-02-07T12:06:53.131Z,41.90
2023-02-07T12:09:36.141Z,42.00
2023-02-07T12:12:07.822Z,38.30
2023-02-07T12:14:50.626Z,38.80
2023-02-07T12:17:26.995Z,37.20
2023-02-07T12:20:24.924Z,39.00
2023-02-07T12:23:21.747Z,46.60
2023-02-07T12:25:59.049Z,41.20
2023-02-07T12:28:38.014Z,52.20
2023-02-07T12:31:15.618Z,46.20
2023-02-07T12:33:52.255Z,48.50
2023-02-07T12:36:44.341Z,57.00
2023-02-07T12:39:22.450Z,44.60
2023-02-07T12:42:04.447Z,55.80
2023-02-07T12:44:37.589Z,56.20
2023-02-07T12:47:14.352Z,57.90
2023-02-07T12:50:03.826Z,49.90
2023-02-07T12:52:47.806Z,45.60
2023-02-07T12:55:37.967Z,53.00
2023-02-07T12:58:25.773Z,48.60
2023-02-07T13:01:06.994Z,55.30
2023-02-07T13:03:59.303Z,50.70
2023-02-07T13:06:40.042Z,49.90
2023-02-07T13:09:28.203Z,60.30
2023-02-07T13:12:22.617Z,54.90
2023-02-07T13:15:02.664Z,58.40
2023-02-07T13:17:40.017Z,53.60
2023-02-07T13:20:40.720Z,53.20
2023-02-07T13:23:25.712Z,57.00
2023-02-07T13:25:57.838Z,54.10
2023-02-07T13:28:32.223Z,51.10
2023-02-07T13:31:00.607Z,47.40
2023-02-07T13:33:35.491Z,44.70
2023-02-07T13:36:25.179Z,45.00
2023-02-07T13:38:58.639Z,49.80
2023-02-07T13:41:48.604Z,48.70
2023-02-07T13:44:20.387Z,45.70
2023-02-07T13:46:56.589Z,47.30
2023-02-07T13:50:00.336Z,53.30
2023-02-07T13:52:43.923Z,53.20
2023-02-07T13:55:39.023Z,58.00
2023-02-07T13:58:49.689Z,48.50
2023-02-07T14:01:19.518Z,50.50
2023-02-07T14:06:33.854Z,44.20
2023-02-07T14:09:29.924Z,49.60
2023-02-07T14:12:15.538Z,49.00
2023-02-07T14:14:51.085Z,51.00
2023-02-07T14:17:29.776Z,53.70
2023-02-07T14:20:01.629Z,58.00
2023-02-07T14:22:52.559Z,66.60
2023-02-07T14:25:38.870Z,65.40
2023-02-07T14:28:06.646Z,61.80
2023-02-07T14:30:59.290Z,57.70
2023-02-07T14:33:37.476Z,63.00
2023-02-07T14:36:16.243Z,58.40
2023-02-07T14:39:00.016Z,56.40
2023-02-07T14:41:32.917Z,64.30
2023-02-07T14:44:09.570Z,49.80
2023-02-07T14:46:52.826Z,51.60
2023-02-07T14:49:37.772Z,52.50
2023-02-07T14:52:09.024Z,49.10
2023-02-07T14:54:38.811Z,60.30
2023-02-07T14:57:34.417Z,51.90
2023-02-07T15:00:15.206Z,56.50
2023-02-07T15:02:58.016Z,68.20
2023-02-07T15:05:32.887Z,71.90
2023-02-07T15:08:02.734Z,60.70
2023-02-07T15:12:57.231Z,62.70
2023-02-07T15:15:25.458Z,65.20
2023-02-07T15:17:55.336Z,63.40
2023-02-07T15:23:02.320Z,53.50
2023-02-07T15:25:31.791Z,69.20
2023-02-07T15:28:00.822Z,87.90
2023-02-07T15:30:28.124Z,84.10
2023-02-07T15:32:55.132Z,80.20
2023-02-07T15:35:39.808Z,77.70
2023-02-07T15:38:20.465Z,91.50
2023-02-07T15:40:47.560Z,82.70
2023-02-07T15:43:29.160Z,81.90
2023-02-07T15:46:12.970Z,87.20
2023-02-07T15:48:55.111Z,90.70
2023-02-07T15:51:30.507Z,94.40
2023-02-07T15:54:00.763Z,86.50
2023-02-07T15:56:30.235Z,74.80
2023-02-07T15:59:04.044Z,82.70
2023-02-07T16:01:31.027Z,66.90
2023-02-07T16:03:58.754Z,77.00
2023-02-07T16:06:28.662Z,78.40
2023-02-07T16:11:27.147Z,67.70
2023-02-07T16:13:59.888Z,72.30
2023-02-07T16:16:54.057Z,72.30
2023-02-07T16:19:32.745Z,68.30
2023-02-07T16:22:09.991Z,74.00
2023-02-07T16:24:41.322Z,72.60
2023-02-07T16:27:13.782Z,87.30
2023-02-07T16:29:41.943Z,80.80
2023-02-07T16:32:11.665Z,84.60
2023-02-07T16:34:50.342Z,93.90
2023-02-07T16:37:24.476Z,109.80
2023-02-07T16:39:51.276Z,91.90
2023-02-07T16:42:19.876Z,103.20
2023-02-07T16:44:47.342Z,99.20
2023-02-07T16:47:16.000Z,97.00
2023-02-07T16:49:44.546Z,97.80
2023-02-07T16:52:11.428Z,88.20
2023-02-07T16:54:38.140Z,92.80
2023-02-07T16:57:05.140Z,97.80
2023-02-07T16:59:32.775Z,85.50
2023-02-07T17:01:59.931Z,94.90
2023-02-07T17:04:26.638Z,98.90
2023-02-07T17:06:53.635Z,84.20
2023-02-07T17:09:24.384Z,92.10
2023-02-07T17:11:53.497Z,84.20
2023-02-07T17:14:20.614Z,87.40
2023-02-07T17:16:47.781Z,86.70
2023-02-07T17:19:26.452Z,80.30
2023-02-07T17:21:53.415Z,89.60
2023-02-07T17:24:20.520Z,86.30
2023-02-07T17:26:51.273Z,84.00
2023-02-07T17:29:18.999Z,85.60
2023-02-07T17:31:46.611Z,88.00
2023-02-07T17:34:13.807Z,83.90
2023-02-07T17:39:26.397Z,139.20
2023-02-07T17:41:53.259Z,111.70
2023-02-07T17:44:23.329Z,92.50
2023-02-07T17:46:50.266Z,104.50
2023-02-07T17:49:17.721Z,105.30
2023-02-07T17:51:44.744Z,104.50
2023-02-07T17:54:11.797Z,106.50
2023-02-07T17:56:38.695Z,112.70
2023-02-07T17:59:07.780Z,104.60
2023-02-07T18:01:34.930Z,107.70
2023-02-07T18:04:02.751Z,116.20
2023-02-07T18:06:30.336Z,112.10
2023-02-07T18:09:01.433Z,110.20
2023-02-07T18:11:28.422Z,96.10
2023-02-07T18:13:57.306Z,91.30
2023-02-07T18:16:26.470Z,81.00
2023-02-07T18:18:55.880Z,82.60
2023-02-07T18:21:22.742Z,89.00
2023-02-07T18:23:49.948Z,87.70
2023-02-07T18:26:17.055Z,82.60
2023-02-07T18:28:44.296Z,86.80
2023-02-07T18:31:14.012Z,88.20
2023-02-07T18:36:08.937Z,71.40
2023-02-07T18:38:36.785Z,92.80
2023-02-07T18:41:17.641Z,94.00
2023-02-07T18:43:44.961Z,91.50
2023-02-07T18:46:17.044Z,106.90
2023-02-07T18:48:45.054Z,99.10
2023-02-07T18:51:14.848Z,128.50
2023-02-07T18:53:42.974Z,156.90
2023-02-07T18:56:15.912Z,124.80
2023-02-07T18:58:44.052Z,114.80
2023-02-07T19:01:19.000Z,121.80
2023-02-07T19:03:54.398Z,124.90
2023-02-07T19:06:23.512Z,135.70
2023-02-07T19:08:50.635Z,119.50
2023-02-07T19:11:18.277Z,122.30
2023-02-07T19:13:53.700Z,125.00
2023-02-07T19:16:23.505Z,129.80
2023-02-07T19:18:50.928Z,116.60
2023-02-07T19:21:22.123Z,118.20
2023-02-07T19:23:49.022Z,124.80
2023-02-07T19:26:15.871Z,109.70
2023-02-07T19:28:42.774Z,95.80
2023-02-07T19:31:17.630Z,98.00
2023-02-07T19:33:46.091Z,104.70
2023-02-07T19:36:13.800Z,118.80
2023-02-07T19:38:40.528Z,97.00
2023-02-07T19:41:08.661Z,96.60
2023-02-07T19:43:36.214Z,91.10
2023-02-07T19:46:03.011Z,125.80
2023-02-07T19:48:29.723Z,136.20
2023-02-07T19:51:00.597Z,116.10
2023-02-07T19:53:28.828Z,115.40
2023-02-07T19:56:02.495Z,104.20
2023-02-07T19:58:30.385Z,96.10
2023-02-07T20:00:58.222Z,110.70
2023-02-07T20:03:25.718Z,155.90
2023-02-07T20:05:53.289Z,137.80
2023-02-07T20:08:21.975Z,136.70
2023-02-07T20:10:49.291Z,130.60
2023-02-07T20:13:16.446Z,117.70
2023-02-07T20:15:45.715Z,123.20
2023-02-07T20:18:14.288Z,118.90
2023-02-07T20:20:43.444Z,138.10
2023-02-07T20:23:11.092Z,135.10
2023-02-07T20:25:40.355Z,135.10
2023-02-07T20:28:08.589Z,130.00
2023-02-07T20:30:36.383Z,131.50
2023-02-07T20:33:03.178Z,121.50
2023-02-07T20:35:29.904Z,125.30
2023-02-07T20:37:56.998Z,111.70
2023-02-07T20:40:23.848Z,97.10
2023-02-07T20:42:50.696Z,103.90
2023-02-07T20:45:17.590Z,104.10
2023-02-07T20:47:44.961Z,103.70
2023-02-07T20:50:11.761Z,119.00
2023-02-07T20:52:38.544Z,105.00
2023-02-07T20:55:06.566Z,103.30
2023-02-07T20:57:33.511Z,138.40
2023-02-07T21:00:00.305Z,100.90
2023-02-07T21:02:27.237Z,110.30
2023-02-07T21:04:54.012Z,121.90
2023-02-07T21:07:20.838Z,151.90
2023-02-07T21:09:47.928Z,161.20
2023-02-07T21:12:14.817Z,193.50
2023-02-07T21:14:41.736Z,185.10
2023-02-07T21:17:09.227Z,160.00
2023-02-07T21:19:37.523Z,152.50
2023-02-07T21:22:05.294Z,144.10
2023-02-07T21:24:32.749Z,138.50
2023-02-07T21:26:59.630Z,153.40
2023-02-07T21:29:28.146Z,146.50
2023-02-07T21:31:55.643Z,125.50
2023-02-07T21:34:22.768Z,107.60
2023-02-07T21:36:50.579Z,107.90
2023-02-07T21:39:17.710Z,108.20
2023-02-07T21:41:46.791Z,96.80
2023-02-07T21:44:14.994Z,110.20
2023-02-07T21:46:45.538Z,106.10
2023-02-07T21:49:16.328Z,108.50
2023-02-07T21:51:47.462Z,101.50
2023-02-07T21:54:14.359Z,95.90
2023-02-07T21:56:42.763Z,107.20
2023-02-07T21:59:18.244Z,105.10
2023-02-07T22:01:46.580Z,93.30
2023-02-07T22:04:14.878Z,98.50
2023-02-07T22:06:43.785Z,112.90
2023-02-07T22:09:13.456Z,114.20
2023-02-07T22:11:40.984Z,136.90
2023-02-07T22:14:07.774Z,173.20
2023-02-07T22:16:35.303Z,148.50
2023-02-07T22:19:04.767Z,149.50
2023-02-07T22:21:34.784Z,158.20
2023-02-07T22:24:02.969Z,152.70
2023-02-07T22:26:31.037Z,132.90
2023-02-07T22:28:59.609Z,126.00
2023-02-07T22:31:29.223Z,121.10
2023-02-07T22:34:00.290Z,143.90
2023-02-07T22:36:30.181Z,121.80
2023-02-07T22:41:25.643Z,94.10
2023-02-07T22:43:52.474Z,89.90
2023-02-07T22:46:21.960Z,99.20
2023-02-07T22:48:49.592Z,106.00
2023-02-07T22:51:32.620Z,124.40
2023-02-07T22:54:06.405Z,107.10
2023-02-07T22:56:35.371Z,86.20
2023-02-07T22:59:02.546Z,91.50
2023-02-07T23:01:35.599Z,140.80
2023-02-07T23:04:03.988Z,120.80
2023-02-07T23:06:32.652Z,99.90
2023-02-07T23:09:00.111Z,128.30
2023-02-07T23:11:26.821Z,157.00
2023-02-07T23:13:54.015Z,156.70
2023-02-07T23:16:24.316Z,177.50
2023-02-07T23:18:53.848Z,153.80
2023-02-07T23:21:22.409Z,160.40
2023-02-07T23:23:50.180Z,148.90
2023-02-07T23:26:19.336Z,134.80
2023-02-07T23:28:46.196Z,126.60
2023-02-07T23:31:15.797Z,102.80
2023-02-07T23:33:42.966Z,99.30
2023-02-07T23:36:10.262Z,103.00
2023-02-07T23:38:37.353Z,106.20
2023-02-07T23:41:04.783Z,93.20
2023-02-07T23:43:31.488Z,100.00
2023-02-07T23:45:58.275Z,104.20
2023-02-07T23:48:25.081Z,111.60
2023-02-07T23:50:57.051Z,92.50
2023-02-07T23:53:25.475Z,89.40
2023-02-07T23:55:54.978Z,94.10
2023-02-07T23:58:23.278Z,84.40
